sensor_id;sensor_type;location;lat;lon;timestamp;pressure;altitude;pressure_sealevel;temperature;humidity
70411;BME280;57832;46.038;11.398;2022-10-04T00:02:28;97466.66;;;9.98;100.00
70411;BME280;57832;46.038;11.398;2022-10-04T00:05:03;97464.28;;;10.20;100.00
70411;BME280;57832;46.038;11.398;2022-10-04T00:07:33;97467.84;;;9.72;100.00
70411;BME280;57832;46.038;11.398;2022-10-04T00:12:47;97473.19;;;8.98;100.00
70411;BME280;57832;46.038;11.398;2022-10-04T00:15:27;97477.16;;;9.19;100.00
70411;BME280;57832;46.038;11.398;2022-10-04T00:23:27;97469.97;;;9.63;100.00
70411;BME280;57832;46.038;11.398;2022-10-04T00:25:57;97472.09;;;9.97;100.00
70411;BME280;57832;46.038;11.398;2022-10-04T00:33:44;97474.75;;;10.20;100.00
70411;BME280;57832;46.038;11.398;2022-10-04T00:46:48;97469.56;;;9.90;100.00
70411;BME280;57832;46.038;11.398;2022-10-04T00:49:16;97472.31;;;9.95;100.00
70411;BME280;57832;46.038;11.398;2022-10-04T00:51:47;97471.09;;;9.67;100.00
70411;BME280;57832;46.038;11.398;2022-10-04T00:54:27;97474.50;;;9.86;100.00
70411;BME280;57832;46.038;11.398;2022-10-04T00:57:01;97470.66;;;10.01;100.00
70411;BME280;57832;46.038;11.398;2022-10-04T00:59:48;97463.13;;;10.04;100.00
70411;BME280;57832;46.038;11.398;2022-10-04T01:02:27;97466.41;;;9.88;100.00
70411;BME280;57832;46.038;11.398;2022-10-04T01:07:35;97461.97;;;10.00;100.00
70411;BME280;57832;46.038;11.398;2022-10-04T01:20:37;97469.75;;;9.34;100.00
70411;BME280;57832;46.038;11.398;2022-10-04T01:23:03;97458.06;;;9.49;100.00
70411;BME280;57832;46.038;11.398;2022-10-04T01:25:49;97454.25;;;9.63;100.00
70411;BME280;57832;46.038;11.398;2022-10-04T01:28:16;97450.44;;;9.90;100.00
70411;BME280;57832;46.038;11.398;2022-10-04T01:30:42;97442.19;;;9.62;100.00
70411;BME280;57832;46.038;11.398;2022-10-04T01:33:08;97444.09;;;9.55;100.00
70411;BME280;57832;46.038;11.398;2022-10-04T01:35:34;97455.88;;;8.97;100.00
70411;BME280;57832;46.038;11.398;2022-10-04T01:38:02;97455.22;;;9.20;100.00
70411;BME280;57832;46.038;11.398;2022-10-04T01:40:33;97455.69;;;9.29;100.00
70411;BME280;57832;46.038;11.398;2022-10-04T01:43:08;97447.84;;;9.59;100.00
70411;BME280;57832;46.038;11.398;2022-10-04T01:45:42;97444.50;;;9.70;100.00
70411;BME280;57832;46.038;11.398;2022-10-04T01:48:11;97444.34;;;9.65;100.00
70411;BME280;57832;46.038;11.398;2022-10-04T01:50:46;97448.97;;;9.51;100.00
70411;BME280;57832;46.038;11.398;2022-10-04T01:55:55;97440.72;;;9.78;100.00
70411;BME280;57832;46.038;11.398;2022-10-04T01:58:31;97440.81;;;9.71;100.00
70411;BME280;57832;46.038;11.398;2022-10-04T02:01:05;97445.75;;;9.19;100.00
70411;BME280;57832;46.038;11.398;2022-10-04T02:03:38;97449.69;;;9.10;100.00
70411;BME280;57832;46.038;11.398;2022-10-04T02:06:07;97444.31;;;9.23;100.00
70411;BME280;57832;46.038;11.398;2022-10-04T02:08:37;97435.22;;;9.56;100.00
70411;BME280;57832;46.038;11.398;2022-10-04T02:11:05;97436.63;;;9.70;100.00
70411;BME280;57832;46.038;11.398;2022-10-04T02:13:37;97441.47;;;9.97;100.00
70411;BME280;57832;46.038;11.398;2022-10-04T02:16:07;97444.63;;;9.87;100.00
70411;BME280;57832;46.038;11.398;2022-10-04T02:18:36;97445.53;;;9.81;100.00
70411;BME280;57832;46.038;11.398;2022-10-04T02:21:07;97446.69;;;9.85;100.00
70411;BME280;57832;46.038;11.398;2022-10-04T02:23:34;97443.59;;;9.88;100.00
70411;BME280;57832;46.038;11.398;2022-10-04T02:26:05;97449.53;;;9.84;100.00
70411;BME280;57832;46.038;11.398;2022-10-04T02:28:32;97455.31;;;9.13;100.00
70411;BME280;57832;46.038;11.398;2022-10-04T02:30:58;97455.00;;;9.03;100.00
70411;BME280;57832;46.038;11.398;2022-10-04T02:33:45;97453.69;;;9.31;100.00
70411;BME280;57832;46.038;11.398;2022-10-04T02:36:13;97454.22;;;9.02;100.00
70411;BME280;57832;46.038;11.398;2022-10-04T02:38:54;97440.13;;;9.64;100.00
70411;BME280;57832;46.038;11.398;2022-10-04T02:41:47;97432.38;;;9.58;100.00
70411;BME280;57832;46.038;11.398;2022-10-04T02:44:19;97431.63;;;9.69;100.00
70411;BME280;57832;46.038;11.398;2022-10-04T02:47:13;97448.16;;;8.65;100.00
70411;BME280;57832;46.038;11.398;2022-10-04T02:50:04;97448.53;;;9.06;100.00
70411;BME280;57832;46.038;11.398;2022-10-04T02:52:43;97445.03;;;9.30;100.00
70411;BME280;57832;46.038;11.398;2022-10-04T02:55:25;97439.81;;;9.42;100.00
70411;BME280;57832;46.038;11.398;2022-10-04T02:57:52;97438.97;;;9.30;100.00
70411;BME280;57832;46.038;11.398;2022-10-04T03:03:30;97445.06;;;9.12;100.00
70411;BME280;57832;46.038;11.398;2022-10-04T03:05:59;97453.00;;;9.05;100.00
70411;BME280;57832;46.038;11.398;2022-10-04T03:08:28;97451.94;;;9.25;100.00
70411;BME280;57832;46.038;11.398;2022-10-04T03:10:56;97446.53;;;9.38;100.00
70411;BME280;57832;46.038;11.398;2022-10-04T03:13:24;97448.63;;;8.99;100.00
70411;BME280;57832;46.038;11.398;2022-10-04T03:15:50;97458.59;;;9.39;100.00
70411;BME280;57832;46.038;11.398;2022-10-04T03:18:16;97456.69;;;9.16;100.00
70411;BME280;57832;46.038;11.398;2022-10-04T03:20:43;97459.31;;;9.16;100.00
70411;BME280;57832;46.038;11.398;2022-10-04T03:23:10;97463.00;;;8.90;100.00
70411;BME280;57832;46.038;11.398;2022-10-04T03:28:12;97472.59;;;9.14;100.00
70411;BME280;57832;46.038;11.398;2022-10-04T03:30:42;97460.88;;;9.17;100.00
70411;BME280;57832;46.038;11.398;2022-10-04T03:33:15;97466.34;;;8.97;100.00
70411;BME280;57832;46.038;11.398;2022-10-04T03:35:43;97467.94;;;8.98;100.00
70411;BME280;57832;46.038;11.398;2022-10-04T03:38:11;97461.78;;;9.11;100.00
70411;BME280;57832;46.038;11.398;2022-10-04T03:40:41;97463.47;;;9.35;100.00
70411;BME280;57832;46.038;11.398;2022-10-04T03:43:09;97463.72;;;9.15;100.00
70411;BME280;57832;46.038;11.398;2022-10-04T03:45:38;97467.66;;;9.06;100.00
70411;BME280;57832;46.038;11.398;2022-10-04T03:48:06;97464.41;;;8.92;100.00
70411;BME280;57832;46.038;11.398;2022-10-04T03:50:40;97466.84;;;9.06;100.00
70411;BME280;57832;46.038;11.398;2022-10-04T03:55:53;97466.56;;;8.95;100.00
70411;BME280;57832;46.038;11.398;2022-10-04T03:58:19;97468.25;;;8.46;100.00
70411;BME280;57832;46.038;11.398;2022-10-04T04:03:54;97454.84;;;8.61;100.00
70411;BME280;57832;46.038;11.398;2022-10-04T04:06:22;97455.75;;;8.73;100.00
70411;BME280;57832;46.038;11.398;2022-10-04T04:08:52;97452.22;;;8.61;100.00
70411;BME280;57832;46.038;11.398;2022-10-04T04:11:23;97466.28;;;7.91;100.00
70411;BME280;57832;46.038;11.398;2022-10-04T04:16:22;97458.63;;;8.65;100.00
70411;BME280;57832;46.038;11.398;2022-10-04T04:18:51;97461.34;;;8.26;100.00
70411;BME280;57832;46.038;11.398;2022-10-04T04:21:18;97473.19;;;8.03;100.00
70411;BME280;57832;46.038;11.398;2022-10-04T04:24:03;97480.72;;;7.93;100.00
70411;BME280;57832;46.038;11.398;2022-10-04T04:26:42;97490.34;;;8.50;100.00
70411;BME280;57832;46.038;11.398;2022-10-04T04:34:19;97496.38;;;8.25;100.00
70411;BME280;57832;46.038;11.398;2022-10-04T04:36:47;97500.38;;;8.28;100.00
70411;BME280;57832;46.038;11.398;2022-10-04T04:39:18;97507.03;;;8.49;100.00
70411;BME280;57832;46.038;11.398;2022-10-04T04:42:05;97495.09;;;8.60;100.00
70411;BME280;57832;46.038;11.398;2022-10-04T04:44:46;97505.16;;;8.81;100.00
70411;BME280;57832;46.038;11.398;2022-10-04T04:47:27;97501.75;;;8.56;100.00
70411;BME280;57832;46.038;11.398;2022-10-04T04:49:56;97508.25;;;8.72;100.00
70411;BME280;57832;46.038;11.398;2022-10-04T04:52:27;97507.34;;;9.03;100.00
70411;BME280;57832;46.038;11.398;2022-10-04T04:54:54;97514.72;;;8.87;100.00
70411;BME280;57832;46.038;11.398;2022-10-04T04:57:20;97512.56;;;9.03;100.00
70411;BME280;57832;46.038;11.398;2022-10-04T04:59:49;97506.63;;;8.96;100.00
70411;BME280;57832;46.038;11.398;2022-10-04T05:02:50;97520.25;;;8.79;100.00
70411;BME280;57832;46.038;11.398;2022-10-04T05:05:28;97518.41;;;8.61;100.00
70411;BME280;57832;46.038;11.398;2022-10-04T05:08:22;97513.78;;;8.82;100.00
70411;BME280;57832;46.038;11.398;2022-10-04T05:10:56;97516.31;;;8.70;100.00
70411;BME280;57832;46.038;11.398;2022-10-04T05:13:46;97519.38;;;8.67;100.00
70411;BME280;57832;46.038;11.398;2022-10-04T05:16:15;97533.13;;;8.56;100.00
70411;BME280;57832;46.038;11.398;2022-10-04T05:18:44;97528.47;;;8.00;100.00
70411;BME280;57832;46.038;11.398;2022-10-04T05:21:21;97537.03;;;8.46;100.00
70411;BME280;57832;46.038;11.398;2022-10-04T05:23:48;97536.72;;;8.61;100.00
70411;BME280;57832;46.038;11.398;2022-10-04T05:26:24;97529.03;;;8.85;100.00
70411;BME280;57832;46.038;11.398;2022-10-04T05:28:51;97532.81;;;8.70;100.00
70411;BME280;57832;46.038;11.398;2022-10-04T05:34:26;97529.13;;;8.97;100.00
70411;BME280;57832;46.038;11.398;2022-10-04T05:39:50;97533.56;;;8.52;100.00
70411;BME280;57832;46.038;11.398;2022-10-04T05:42:23;97535.22;;;8.72;100.00
70411;BME280;57832;46.038;11.398;2022-10-04T05:44:53;97543.44;;;8.76;100.00
70411;BME280;57832;46.038;11.398;2022-10-04T05:47:20;97554.91;;;8.75;100.00
70411;BME280;57832;46.038;11.398;2022-10-04T05:49:56;97560.75;;;8.95;100.00
70411;BME280;57832;46.038;11.398;2022-10-04T05:52:32;97558.59;;;9.11;100.00
70411;BME280;57832;46.038;11.398;2022-10-04T05:55:25;97558.44;;;9.06;100.00
70411;BME280;57832;46.038;11.398;2022-10-04T06:12:05;97551.56;;;10.09;100.00
70411;BME280;57832;46.038;11.398;2022-10-04T06:22:24;97552.94;;;10.54;100.00
70411;BME280;57832;46.038;11.398;2022-10-04T06:25:01;97556.59;;;10.53;100.00
70411;BME280;57832;46.038;11.398;2022-10-04T06:27:44;97558.31;;;10.59;100.00
70411;BME280;57832;46.038;11.398;2022-10-04T06:30:17;97555.94;;;10.69;100.00
70411;BME280;57832;46.038;11.398;2022-10-04T06:49:11;97581.22;;;10.52;100.00
70411;BME280;57832;46.038;11.398;2022-10-04T07:02:49;97574.44;;;10.98;100.00
70411;BME280;57832;46.038;11.398;2022-10-04T07:05:31;97572.13;;;11.14;100.00
70411;BME280;57832;46.038;11.398;2022-10-04T07:08:16;97578.50;;;11.18;100.00
70411;BME280;57832;46.038;11.398;2022-10-04T07:10:58;97572.81;;;11.21;100.00
70411;BME280;57832;46.038;11.398;2022-10-04T07:16:07;97576.97;;;11.58;100.00
70411;BME280;57832;46.038;11.398;2022-10-04T07:18:51;97569.22;;;11.51;100.00
70411;BME280;57832;46.038;11.398;2022-10-04T07:21:19;97580.22;;;11.12;100.00
70411;BME280;57832;46.038;11.398;2022-10-04T07:23:56;97576.81;;;11.12;100.00
70411;BME280;57832;46.038;11.398;2022-10-04T07:29:23;97575.44;;;11.74;100.00
70411;BME280;57832;46.038;11.398;2022-10-04T07:34:27;97575.38;;;11.97;100.00
70411;BME280;57832;46.038;11.398;2022-10-04T07:36:58;97581.09;;;12.23;100.00
70411;BME280;57832;46.038;11.398;2022-10-04T07:39:30;97578.91;;;12.49;100.00
70411;BME280;57832;46.038;11.398;2022-10-04T07:41:59;97571.94;;;12.77;100.00
70411;BME280;57832;46.038;11.398;2022-10-04T07:44:36;97574.19;;;12.85;100.00
70411;BME280;57832;46.038;11.398;2022-10-04T07:47:19;97579.41;;;13.02;100.00
70411;BME280;57832;46.038;11.398;2022-10-04T07:49:46;97599.31;;;13.32;100.00
70411;BME280;57832;46.038;11.398;2022-10-04T07:52:42;97581.44;;;12.44;100.00
70411;BME280;57832;46.038;11.398;2022-10-04T07:55:27;97587.03;;;12.81;100.00
70411;BME280;57832;46.038;11.398;2022-10-04T07:58:07;97580.63;;;12.94;100.00
70411;BME280;57832;46.038;11.398;2022-10-04T08:06:44;97571.69;;;13.34;100.00
70411;BME280;57832;46.038;11.398;2022-10-04T08:12:20;97579.75;;;14.16;100.00
70411;BME280;57832;46.038;11.398;2022-10-04T08:15:07;97573.75;;;15.34;100.00
70411;BME280;57832;46.038;11.398;2022-10-04T08:20:59;97583.78;;;13.52;100.00
70411;BME280;57832;46.038;11.398;2022-10-04T08:32:10;97590.50;;;14.10;100.00
70411;BME280;57832;46.038;11.398;2022-10-04T08:36:03;97588.84;;;14.31;100.00
70411;BME280;57832;46.038;11.398;2022-10-04T08:38:17;97595.22;;;14.08;100.00
70411;BME280;57832;46.038;11.398;2022-10-04T08:56:51;97583.22;;;14.82;100.00
70411;BME280;57832;46.038;11.398;2022-10-04T08:59:37;97583.56;;;14.58;100.00
70411;BME280;57832;46.038;11.398;2022-10-04T09:08:13;97586.78;;;16.40;100.00
70411;BME280;57832;46.038;11.398;2022-10-04T09:11:18;97588.91;;;16.53;100.00
70411;BME280;57832;46.038;11.398;2022-10-04T09:19:21;97591.28;;;16.55;100.00
70411;BME280;57832;46.038;11.398;2022-10-04T09:22:13;97589.16;;;16.98;100.00
70411;BME280;57832;46.038;11.398;2022-10-04T09:25:43;97583.88;;;16.93;100.00
70411;BME280;57832;46.038;11.398;2022-10-04T09:31:16;97580.41;;;16.57;100.00
70411;BME280;57832;46.038;11.398;2022-10-04T09:34:00;97578.59;;;16.67;100.00
70411;BME280;57832;46.038;11.398;2022-10-04T09:42:24;97580.66;;;16.03;100.00
70411;BME280;57832;46.038;11.398;2022-10-04T09:44:58;97581.94;;;15.91;100.00
70411;BME280;57832;46.038;11.398;2022-10-04T09:50:33;97573.00;;;16.33;100.00
70411;BME280;57832;46.038;11.398;2022-10-04T10:17:40;97543.31;;;16.82;100.00
70411;BME280;57832;46.038;11.398;2022-10-04T10:31:49;97540.44;;;17.65;100.00
70411;BME280;57832;46.038;11.398;2022-10-04T11:00:22;97526.34;;;16.88;100.00
70411;BME280;57832;46.038;11.398;2022-10-04T11:17:13;97511.28;;;16.84;100.00
70411;BME280;57832;46.038;11.398;2022-10-04T11:23:26;97516.84;;;16.72;100.00
70411;BME280;57832;46.038;11.398;2022-10-04T11:31:31;97507.78;;;16.88;100.00
70411;BME280;57832;46.038;11.398;2022-10-04T11:42:43;97503.84;;;16.91;100.00
70411;BME280;57832;46.038;11.398;2022-10-04T12:03:34;97495.16;;;16.54;100.00
70411;BME280;57832;46.038;11.398;2022-10-04T12:06:12;97487.50;;;16.58;100.00
70411;BME280;57832;46.038;11.398;2022-10-04T12:08:47;97492.97;;;16.93;100.00
70411;BME280;57832;46.038;11.398;2022-10-04T12:35:32;97477.44;;;16.40;100.00
70411;BME280;57832;46.038;11.398;2022-10-04T12:43:34;97482.91;;;16.84;100.00
70411;BME280;57832;46.038;11.398;2022-10-04T12:48:55;97480.81;;;16.71;100.00
70411;BME280;57832;46.038;11.398;2022-10-04T12:59:54;97476.69;;;17.75;100.00
70411;BME280;57832;46.038;11.398;2022-10-04T13:03:13;97469.19;;;17.48;100.00
70411;BME280;57832;46.038;11.398;2022-10-04T13:11:31;97470.00;;;17.93;100.00
70411;BME280;57832;46.038;11.398;2022-10-04T13:14:07;97468.38;;;17.97;100.00
70411;BME280;57832;46.038;11.398;2022-10-04T13:25:25;97470.28;;;17.86;100.00
70411;BME280;57832;46.038;11.398;2022-10-04T13:28:11;97458.38;;;18.48;100.00
70411;BME280;57832;46.038;11.398;2022-10-04T13:30:58;97470.63;;;17.69;100.00
70411;BME280;57832;46.038;11.398;2022-10-04T13:33:38;97471.13;;;18.16;100.00
70411;BME280;57832;46.038;11.398;2022-10-04T13:42:28;97463.34;;;18.54;100.00
70411;BME280;57832;46.038;11.398;2022-10-04T13:56:06;97458.56;;;19.48;100.00
70411;BME280;57832;46.038;11.398;2022-10-04T13:59:26;97458.72;;;19.76;100.00
70411;BME280;57832;46.038;11.398;2022-10-04T14:04:37;97449.88;;;20.47;100.00
70411;BME280;57832;46.038;11.398;2022-10-04T14:17:58;97448.56;;;19.97;100.00
70411;BME280;57832;46.038;11.398;2022-10-04T14:42:57;97442.84;;;19.33;100.00
70411;BME280;57832;46.038;11.398;2022-10-04T14:45:41;97440.81;;;19.25;100.00
70411;BME280;57832;46.038;11.398;2022-10-04T14:54:03;97438.06;;;19.11;100.00
70411;BME280;57832;46.038;11.398;2022-10-04T14:59:39;97436.88;;;18.98;100.00
70411;BME280;57832;46.038;11.398;2022-10-04T15:07:42;97435.66;;;18.90;100.00
70411;BME280;57832;46.038;11.398;2022-10-04T15:10:35;97438.34;;;18.85;100.00
70411;BME280;57832;46.038;11.398;2022-10-04T15:13:08;97441.09;;;18.50;100.00
70411;BME280;57832;46.038;11.398;2022-10-04T15:18:49;97450.00;;;18.35;100.00
70411;BME280;57832;46.038;11.398;2022-10-04T15:23:54;97443.75;;;18.21;100.00
70411;BME280;57832;46.038;11.398;2022-10-04T15:31:37;97448.03;;;18.17;100.00
70411;BME280;57832;46.038;11.398;2022-10-04T15:50:31;97471.22;;;17.61;100.00
70411;BME280;57832;46.038;11.398;2022-10-04T15:56:51;97470.34;;;17.26;100.00
70411;BME280;57832;46.038;11.398;2022-10-04T15:58:54;97474.88;;;17.20;100.00
70411;BME280;57832;46.038;11.398;2022-10-04T16:06:50;97476.66;;;16.18;100.00
70411;BME280;57832;46.038;11.398;2022-10-04T16:15:08;97489.00;;;15.66;100.00
70411;BME280;57832;46.038;11.398;2022-10-04T16:25:46;97513.91;;;14.64;100.00
70411;BME280;57832;46.038;11.398;2022-10-04T16:33:51;97539.34;;;14.11;100.00
70411;BME280;57832;46.038;11.398;2022-10-04T16:36:22;97545.53;;;13.94;100.00
70411;BME280;57832;46.038;11.398;2022-10-04T16:38:53;97555.94;;;13.84;100.00
70411;BME280;57832;46.038;11.398;2022-10-04T16:41:44;97568.78;;;13.53;100.00
70411;BME280;57832;46.038;11.398;2022-10-04T16:44:37;97571.22;;;13.37;100.00
70411;BME280;57832;46.038;11.398;2022-10-04T16:49:51;97577.44;;;13.31;100.00
70411;BME280;57832;46.038;11.398;2022-10-04T16:52:31;97579.19;;;13.03;100.00
70411;BME280;57832;46.038;11.398;2022-10-04T16:55:29;97588.06;;;12.80;100.00
70411;BME280;57832;46.038;11.398;2022-10-04T17:06:53;97626.75;;;12.17;100.00
70411;BME280;57832;46.038;11.398;2022-10-04T17:12:42;97633.47;;;12.13;100.00
70411;BME280;57832;46.038;11.398;2022-10-04T17:36:54;97683.53;;;11.77;100.00
70411;BME280;57832;46.038;11.398;2022-10-04T17:41:55;97685.06;;;11.90;100.00
70411;BME280;57832;46.038;11.398;2022-10-04T17:44:51;97692.31;;;11.83;100.00
70411;BME280;57832;46.038;11.398;2022-10-04T17:47:26;97692.91;;;11.37;100.00
70411;BME280;57832;46.038;11.398;2022-10-04T17:50:20;97707.63;;;11.27;100.00
70411;BME280;57832;46.038;11.398;2022-10-04T17:53:25;97715.06;;;11.42;100.00
70411;BME280;57832;46.038;11.398;2022-10-04T17:56:11;97720.31;;;11.30;100.00
70411;BME280;57832;46.038;11.398;2022-10-04T17:58:43;97725.53;;;11.18;100.00
70411;BME280;57832;46.038;11.398;2022-10-04T18:01:25;97728.94;;;10.95;100.00
70411;BME280;57832;46.038;11.398;2022-10-04T18:09:45;97738.81;;;10.81;100.00
70411;BME280;57832;46.038;11.398;2022-10-04T18:15:03;97735.00;;;11.07;100.00
70411;BME280;57832;46.038;11.398;2022-10-04T18:17:37;97740.91;;;10.91;100.00
70411;BME280;57832;46.038;11.398;2022-10-04T18:22:48;97745.50;;;11.07;100.00
70411;BME280;57832;46.038;11.398;2022-10-04T18:25:17;97741.56;;;10.86;100.00
70411;BME280;57832;46.038;11.398;2022-10-04T18:27:58;97742.41;;;10.98;100.00
70411;BME280;57832;46.038;11.398;2022-10-04T18:30:26;97732.13;;;10.85;100.00
70411;BME280;57832;46.038;11.398;2022-10-04T18:32:55;97743.91;;;10.94;100.00
70411;BME280;57832;46.038;11.398;2022-10-04T18:35:31;97740.81;;;10.97;100.00
70411;BME280;57832;46.038;11.398;2022-10-04T18:40:41;97753.59;;;10.45;100.00
70411;BME280;57832;46.038;11.398;2022-10-04T18:43:34;97755.41;;;10.63;100.00
70411;BME280;57832;46.038;11.398;2022-10-04T18:46:13;97753.56;;;10.63;100.00
70411;BME280;57832;46.038;11.398;2022-10-04T18:57:35;97753.56;;;10.63;100.00
70411;BME280;57832;46.038;11.398;2022-10-04T19:00:00;97754.81;;;10.61;100.00
70411;BME280;57832;46.038;11.398;2022-10-04T19:08:27;97763.53;;;10.24;100.00
70411;BME280;57832;46.038;11.398;2022-10-04T19:18:50;97771.91;;;10.14;100.00
70411;BME280;57832;46.038;11.398;2022-10-04T19:26:45;97785.28;;;10.25;100.00
70411;BME280;57832;46.038;11.398;2022-10-04T19:32:06;97794.59;;;10.20;100.00
70411;BME280;57832;46.038;11.398;2022-10-04T19:37:34;97795.03;;;9.55;100.00
70411;BME280;57832;46.038;11.398;2022-10-04T19:42:50;97818.59;;;9.80;100.00
70411;BME280;57832;46.038;11.398;2022-10-04T19:45:36;97820.31;;;9.93;100.00
70411;BME280;57832;46.038;11.398;2022-10-04T19:48:17;97834.06;;;10.07;100.00
70411;BME280;57832;46.038;11.398;2022-10-04T19:50:49;97824.59;;;10.06;100.00
70411;BME280;57832;46.038;11.398;2022-10-04T19:53:18;97827.72;;;9.96;100.00
70411;BME280;57832;46.038;11.398;2022-10-04T19:55:54;97827.50;;;9.98;100.00
70411;BME280;57832;46.038;11.398;2022-10-04T19:58:39;97829.41;;;9.65;100.00
70411;BME280;57832;46.038;11.398;2022-10-04T20:01:12;97838.16;;;9.78;100.00
70411;BME280;57832;46.038;11.398;2022-10-04T20:03:39;97831.19;;;9.90;100.00
70411;BME280;57832;46.038;11.398;2022-10-04T20:06:04;97829.16;;;9.92;100.00
70411;BME280;57832;46.038;11.398;2022-10-04T20:11:19;97825.81;;;9.85;100.00
70411;BME280;57832;46.038;11.398;2022-10-04T20:19:17;97822.50;;;9.71;100.00
70411;BME280;57832;46.038;11.398;2022-10-04T20:21:43;97821.75;;;9.64;100.00
70411;BME280;57832;46.038;11.398;2022-10-04T20:24:17;97826.22;;;9.57;100.00
70411;BME280;57832;46.038;11.398;2022-10-04T20:26:44;97836.41;;;9.40;100.00
70411;BME280;57832;46.038;11.398;2022-10-04T20:32:07;97833.03;;;9.64;100.00
70411;BME280;57832;46.038;11.398;2022-10-04T20:34:47;97835.44;;;9.66;100.00
70411;BME280;57832;46.038;11.398;2022-10-04T20:37:13;97844.72;;;9.62;100.00
70411;BME280;57832;46.038;11.398;2022-10-04T20:42:30;97858.75;;;9.42;100.00
70411;BME280;57832;46.038;11.398;2022-10-04T20:47:48;97888.84;;;9.33;100.00
70411;BME280;57832;46.038;11.398;2022-10-04T20:50:25;97887.97;;;9.46;100.00
70411;BME280;57832;46.038;11.398;2022-10-04T20:52:55;97893.19;;;9.07;100.00
70411;BME280;57832;46.038;11.398;2022-10-04T20:58:26;97902.41;;;8.71;100.00
70411;BME280;57832;46.038;11.398;2022-10-04T21:01:00;97905.59;;;9.25;100.00
70411;BME280;57832;46.038;11.398;2022-10-04T21:03:34;97911.28;;;9.15;100.00
70411;BME280;57832;46.038;11.398;2022-10-04T21:06:04;97918.19;;;9.03;100.00
70411;BME280;57832;46.038;11.398;2022-10-04T21:08:30;97922.53;;;9.23;100.00
70411;BME280;57832;46.038;11.398;2022-10-04T21:11:05;97928.59;;;9.16;100.00
70411;BME280;57832;46.038;11.398;2022-10-04T21:16:09;97938.75;;;9.38;100.00
70411;BME280;57832;46.038;11.398;2022-10-04T21:18:35;97938.78;;;9.31;100.00
70411;BME280;57832;46.038;11.398;2022-10-04T21:21:00;97937.13;;;9.44;100.00
70411;BME280;57832;46.038;11.398;2022-10-04T21:23:33;97947.63;;;9.44;100.00
70411;BME280;57832;46.038;11.398;2022-10-04T21:26:18;97944.66;;;9.65;100.00
70411;BME280;57832;46.038;11.398;2022-10-04T21:28:46;97945.00;;;9.44;100.00
70411;BME280;57832;46.038;11.398;2022-10-04T21:31:11;97951.59;;;9.53;100.00
70411;BME280;57832;46.038;11.398;2022-10-04T21:33:37;97949.72;;;9.60;100.00
70411;BME280;57832;46.038;11.398;2022-10-04T21:36:04;97947.31;;;9.59;100.00
70411;BME280;57832;46.038;11.398;2022-10-04T21:38:30;97950.47;;;9.67;100.00
70411;BME280;57832;46.038;11.398;2022-10-04T21:40:56;97949.06;;;9.65;100.00
70411;BME280;57832;46.038;11.398;2022-10-04T21:43:23;97951.69;;;9.65;100.00
70411;BME280;57832;46.038;11.398;2022-10-04T21:45:48;97952.72;;;9.64;100.00
70411;BME280;57832;46.038;11.398;2022-10-04T21:48:14;97948.94;;;9.60;100.00
70411;BME280;57832;46.038;11.398;2022-10-04T21:50:39;97948.72;;;9.61;100.00
70411;BME280;57832;46.038;11.398;2022-10-04T21:53:05;97944.78;;;9.45;100.00
70411;BME280;57832;46.038;11.398;2022-10-04T21:55:31;97947.44;;;9.39;100.00
70411;BME280;57832;46.038;11.398;2022-10-04T21:57:56;97945.59;;;9.39;100.00
70411;BME280;57832;46.038;11.398;2022-10-04T22:00:22;97957.41;;;9.55;100.00
70411;BME280;57832;46.038;11.398;2022-10-04T22:02:48;97964.13;;;9.76;100.00
70411;BME280;57832;46.038;11.398;2022-10-04T22:05:14;97972.78;;;9.77;100.00
70411;BME280;57832;46.038;11.398;2022-10-04T22:07:40;97969.69;;;9.93;100.00
70411;BME280;57832;46.038;11.398;2022-10-04T22:10:06;97967.69;;;9.88;100.00
70411;BME280;57832;46.038;11.398;2022-10-04T22:12:31;97959.78;;;9.95;100.00
70411;BME280;57832;46.038;11.398;2022-10-04T22:14:57;97959.94;;;10.00;100.00
70411;BME280;57832;46.038;11.398;2022-10-04T22:17:23;97956.41;;;10.13;100.00
70411;BME280;57832;46.038;11.398;2022-10-04T22:19:48;97947.91;;;10.18;100.00
70411;BME280;57832;46.038;11.398;2022-10-04T22:22:15;97946.22;;;10.05;100.00
70411;BME280;57832;46.038;11.398;2022-10-04T22:24:41;97945.88;;;9.63;100.00
70411;BME280;57832;46.038;11.398;2022-10-04T22:27:25;97953.00;;;9.49;100.00
70411;BME280;57832;46.038;11.398;2022-10-04T22:29:54;97956.50;;;9.75;100.00
70411;BME280;57832;46.038;11.398;2022-10-04T22:32:22;97954.66;;;9.75;100.00
70411;BME280;57832;46.038;11.398;2022-10-04T22:34:49;97944.31;;;9.55;100.00
70411;BME280;57832;46.038;11.398;2022-10-04T22:37:19;97945.75;;;9.06;100.00
70411;BME280;57832;46.038;11.398;2022-10-04T22:39:47;97943.59;;;8.96;100.00
70411;BME280;57832;46.038;11.398;2022-10-04T22:42:13;97944.88;;;9.25;100.00
70411;BME280;57832;46.038;11.398;2022-10-04T22:44:38;97935.81;;;9.28;100.00
70411;BME280;57832;46.038;11.398;2022-10-04T22:47:10;97940.06;;;9.15;100.00
70411;BME280;57832;46.038;11.398;2022-10-04T22:49:38;97943.97;;;8.99;100.00
70411;BME280;57832;46.038;11.398;2022-10-04T22:52:13;97933.25;;;9.14;100.00
70411;BME280;57832;46.038;11.398;2022-10-04T22:54:46;97939.19;;;9.35;100.00
70411;BME280;57832;46.038;11.398;2022-10-04T22:57:13;97944.00;;;8.86;100.00
70411;BME280;57832;46.038;11.398;2022-10-04T22:59:49;97951.66;;;8.81;100.00
70411;BME280;57832;46.038;11.398;2022-10-04T23:02:23;97957.69;;;8.88;100.00
70411;BME280;57832;46.038;11.398;2022-10-04T23:04:53;97966.25;;;9.15;100.00
70411;BME280;57832;46.038;11.398;2022-10-04T23:07:20;97954.50;;;9.31;100.00